createdAt,value
2023-01-23T00:01:35.215Z,98.56
2023-01-23T00:04:03.362Z,97.80
2023-01-23T00:06:31.105Z,97.69
2023-01-23T00:09:00.009Z,98.33
2023-01-23T00:11:29.997Z,97.11
2023-01-23T00:13:58.193Z,97.49
2023-01-23T00:16:26.977Z,97.06
2023-01-23T00:18:54.675Z,96.88
2023-01-23T00:21:23.975Z,96.37
2023-01-23T00:23:53.023Z,96.83
2023-01-23T00:26:24.178Z,96.29
2023-01-23T00:28:51.746Z,96.70
2023-01-23T00:31:20.910Z,96.26
2023-01-23T00:33:48.486Z,96.07
2023-01-23T00:36:16.387Z,96.46
2023-01-23T00:38:43.802Z,95.94
2023-01-23T00:41:12.409Z,95.89
2023-01-23T00:43:41.265Z,96.18
2023-01-23T00:46:08.678Z,96.14
2023-01-23T00:48:36.141Z,96.92
2023-01-23T00:51:03.577Z,96.90
2023-01-23T00:53:31.019Z,97.22
2023-01-23T00:55:58.411Z,97.37
2023-01-23T00:58:26.122Z,96.90
2023-01-23T01:00:55.021Z,97.00
2023-01-23T01:03:25.010Z,96.81
2023-01-23T01:05:52.752Z,96.23
2023-01-23T01:08:20.398Z,97.32
2023-01-23T01:10:47.835Z,96.79
2023-01-23T01:13:19.037Z,97.13
2023-01-23T01:15:46.478Z,97.20
2023-01-23T01:18:15.721Z,97.11
2023-01-23T01:20:44.075Z,96.70
2023-01-23T01:23:11.582Z,96.61
2023-01-23T01:25:39.742Z,96.77
2023-01-23T01:28:07.512Z,97.26
2023-01-23T01:30:36.653Z,97.09
2023-01-23T01:33:04.244Z,96.37
2023-01-23T01:35:33.155Z,96.91
2023-01-23T01:38:00.748Z,96.45
2023-01-23T01:40:30.489Z,96.22
2023-01-23T01:43:00.846Z,96.51
2023-01-23T01:46:03.086Z,95.76
2023-01-23T01:48:33.143Z,95.80
2023-01-23T01:51:02.410Z,95.56
2023-01-23T01:53:30.689Z,96.09
2023-01-23T01:55:58.470Z,95.57
2023-01-23T01:58:26.170Z,95.87
2023-01-23T02:00:54.290Z,96.18
2023-01-23T02:03:22.301Z,95.86
2023-01-23T02:05:50.740Z,96.25
2023-01-23T02:08:23.735Z,95.51
2023-01-23T02:10:54.009Z,96.04
2023-01-23T02:13:24.693Z,95.82
2023-01-23T02:15:52.709Z,96.45
2023-01-23T02:18:20.676Z,96.25
2023-01-23T02:20:48.495Z,96.57
2023-01-23T02:23:23.856Z,97.13
2023-01-23T02:25:56.218Z,97.20
2023-01-23T02:28:24.186Z,97.01
2023-01-23T02:30:51.626Z,96.63
2023-01-23T02:33:50.964Z,95.90
2023-01-23T02:36:20.438Z,95.63
2023-01-23T02:38:54.658Z,95.74
2023-01-23T02:41:25.792Z,95.58
2023-01-23T02:43:54.850Z,95.48
2023-01-23T02:46:22.283Z,95.52
2023-01-23T02:48:49.669Z,95.91
2023-01-23T02:51:18.477Z,95.76
2023-01-23T02:53:45.934Z,96.48
2023-01-23T02:56:13.361Z,96.20
2023-01-23T02:59:00.257Z,96.23
2023-01-23T03:01:28.341Z,95.90
2023-01-23T03:04:03.512Z,95.50
2023-01-23T03:06:36.029Z,96.27
2023-01-23T03:09:07.636Z,96.78
2023-01-23T03:11:36.127Z,97.28
2023-01-23T03:14:06.126Z,96.49
2023-01-23T03:16:36.038Z,96.05
2023-01-23T03:19:08.184Z,96.03
2023-01-23T03:21:37.419Z,95.28
2023-01-23T03:24:05.897Z,95.09
2023-01-23T03:26:33.305Z,94.67
2023-01-23T03:29:18.642Z,94.82
2023-01-23T03:31:47.561Z,94.34
2023-01-23T03:34:17.803Z,94.55
2023-01-23T03:36:45.323Z,94.82
2023-01-23T03:39:30.313Z,94.43
2023-01-23T03:41:57.802Z,94.33
2023-01-23T03:44:25.249Z,94.51
2023-01-23T03:46:54.181Z,94.73
2023-01-23T03:49:21.936Z,94.33
2023-01-23T03:51:49.443Z,94.44
2023-01-23T03:54:16.901Z,94.89
2023-01-23T03:56:44.775Z,94.61
2023-01-23T03:59:12.243Z,94.59
2023-01-23T04:01:40.109Z,94.73
2023-01-23T04:04:08.962Z,94.34
2023-01-23T04:06:36.374Z,94.40
2023-01-23T04:09:04.013Z,94.37
2023-01-23T04:11:31.377Z,94.12
2023-01-23T04:13:59.045Z,94.09
2023-01-23T04:16:28.624Z,94.71
2023-01-23T04:18:56.267Z,94.82
2023-01-23T04:21:25.412Z,94.15
2023-01-23T04:23:52.966Z,94.96
2023-01-23T04:26:20.445Z,94.60
2023-01-23T04:28:47.799Z,95.66
2023-01-23T04:31:15.269Z,94.92
2023-01-23T04:33:42.693Z,96.06
2023-01-23T04:36:11.570Z,95.45
2023-01-23T04:38:40.405Z,94.74
2023-01-23T04:41:07.924Z,94.72
2023-01-23T04:43:35.846Z,94.78
2023-01-23T04:46:03.298Z,95.17
2023-01-23T04:48:30.737Z,96.00
2023-01-23T04:50:58.188Z,95.89
2023-01-23T04:53:25.709Z,95.56
2023-01-23T04:55:54.627Z,95.43
2023-01-23T04:58:22.133Z,96.50
2023-01-23T05:00:49.645Z,95.71
2023-01-23T05:03:17.641Z,95.62
2023-01-23T05:05:45.118Z,95.57
2023-01-23T05:08:13.042Z,94.80
2023-01-23T05:10:40.722Z,94.92
2023-01-23T05:13:10.398Z,94.27
2023-01-23T05:15:37.821Z,94.86
2023-01-23T05:18:05.352Z,94.53
2023-01-23T05:20:32.737Z,94.43
2023-01-23T05:23:00.104Z,95.20
2023-01-23T05:25:29.115Z,95.32
2023-01-23T05:27:56.818Z,96.52
2023-01-23T05:30:25.597Z,95.83
2023-01-23T05:32:53.126Z,96.13
2023-01-23T05:35:20.590Z,96.28
2023-01-23T05:37:50.337Z,96.29
2023-01-23T05:40:18.771Z,96.36
2023-01-23T05:42:46.534Z,96.31
2023-01-23T05:45:14.176Z,96.01
2023-01-23T05:47:43.487Z,96.97
2023-01-23T05:50:15.460Z,97.26
2023-01-23T05:52:42.959Z,98.13
2023-01-23T05:55:10.548Z,97.19
2023-01-23T05:57:37.998Z,97.25
2023-01-23T06:00:06.442Z,97.61
2023-01-23T06:02:35.052Z,96.48
2023-01-23T06:05:03.889Z,96.74
2023-01-23T06:07:31.398Z,96.28
2023-01-23T06:09:58.796Z,95.53
2023-01-23T06:12:26.393Z,96.11
2023-01-23T06:14:53.737Z,96.60
2023-01-23T06:17:21.303Z,96.40
2023-01-23T06:19:48.863Z,96.79
2023-01-23T06:22:17.701Z,96.82
2023-01-23T06:24:45.171Z,96.89
2023-01-23T06:27:12.665Z,96.37
2023-01-23T06:29:40.117Z,97.14
2023-01-23T06:32:07.625Z,97.75
2023-01-23T06:34:36.853Z,97.40
2023-01-23T06:37:04.489Z,97.87
2023-01-23T06:39:34.115Z,97.67
2023-01-23T06:42:01.617Z,97.65
2023-01-23T06:44:29.267Z,96.98
2023-01-23T06:46:56.611Z,96.79
2023-01-23T06:49:24.011Z,96.46
2023-01-23T06:51:51.368Z,95.43
2023-01-23T06:54:18.769Z,95.39
2023-01-23T06:56:49.424Z,95.37
2023-01-23T06:59:16.921Z,95.27
2023-01-23T07:01:44.359Z,95.13
2023-01-23T07:04:11.785Z,95.42
2023-01-23T07:06:39.233Z,95.15
2023-01-23T07:09:06.608Z,95.86
2023-01-23T07:11:34.112Z,96.01
2023-01-23T07:14:02.950Z,95.46
2023-01-23T07:16:30.409Z,95.13
2023-01-23T07:18:58.817Z,94.92
2023-01-23T07:21:26.323Z,96.16
2023-01-23T07:23:53.789Z,96.07
2023-01-23T07:26:21.292Z,95.50
2023-01-23T07:28:48.720Z,96.25
2023-01-23T07:31:17.615Z,96.29
2023-01-23T07:33:44.982Z,95.70
2023-01-23T07:36:13.958Z,96.94
2023-01-23T07:38:41.935Z,95.83
2023-01-23T07:41:10.062Z,96.56
2023-01-23T07:43:38.159Z,97.46
2023-01-23T07:46:05.766Z,96.79
2023-01-23T07:48:34.501Z,96.08
2023-01-23T07:51:03.119Z,96.01
2023-01-23T07:53:30.758Z,96.00
2023-01-23T07:55:58.246Z,95.81
2023-01-23T07:58:25.809Z,95.75
2023-01-23T08:00:53.410Z,96.19
2023-01-23T08:03:21.088Z,97.12
2023-01-23T08:05:50.790Z,97.14
2023-01-23T08:08:18.179Z,96.06
2023-01-23T08:10:45.553Z,95.66
2023-01-23T08:13:13.161Z,96.34
2023-01-23T08:15:40.688Z,96.60
2023-01-23T08:18:08.204Z,96.59
2023-01-23T08:20:35.633Z,96.39
2023-01-23T08:23:04.331Z,96.63
2023-01-23T08:25:32.044Z,95.91
2023-01-23T08:27:59.404Z,96.85
2023-01-23T08:30:26.890Z,96.32
2023-01-23T08:32:54.320Z,96.07
2023-01-23T08:35:21.684Z,96.73
2023-01-23T08:37:49.414Z,96.89
2023-01-23T08:40:18.874Z,96.37
2023-01-23T08:42:46.373Z,97.17
2023-01-23T08:45:13.797Z,97.40
2023-01-23T08:47:41.148Z,97.04
2023-01-23T08:50:10.237Z,98.07
2023-01-23T08:52:37.585Z,97.84
2023-01-23T08:55:05.572Z,97.52
2023-01-23T08:57:34.318Z,97.92
2023-01-23T09:00:01.700Z,99.13
2023-01-23T09:02:29.144Z,99.15
2023-01-23T09:04:56.487Z,97.99
2023-01-23T09:07:23.976Z,98.08
2023-01-23T09:09:51.422Z,97.18
2023-01-23T09:12:18.782Z,97.27
2023-01-23T09:14:47.505Z,97.06
2023-01-23T09:17:14.838Z,97.49
2023-01-23T09:19:42.231Z,97.27
2023-01-23T09:22:09.580Z,97.18
2023-01-23T09:24:36.925Z,98.54
2023-01-23T09:27:04.438Z,98.68
2023-01-23T09:29:31.825Z,98.24
2023-01-23T09:32:00.579Z,98.18
2023-01-23T09:34:28.015Z,98.52
2023-01-23T09:36:55.533Z,99.02
2023-01-23T09:39:23.030Z,98.77
2023-01-23T09:41:50.565Z,98.93
2023-01-23T09:44:21.434Z,98.46
2023-01-23T09:46:51.483Z,98.44
2023-01-23T09:49:26.794Z,98.71
2023-01-23T09:51:57.599Z,98.21
2023-01-23T09:54:38.725Z,98.03
2023-01-23T09:57:14.339Z,98.18
2023-01-23T09:59:58.734Z,98.54
2023-01-23T10:02:28.762Z,99.07
2023-01-23T10:04:58.975Z,98.51
2023-01-23T10:07:45.754Z,99.75
2023-01-23T10:10:38.382Z,99.44
2023-01-23T10:13:09.057Z,98.85
2023-01-23T10:15:48.447Z,99.53
2023-01-23T10:18:20.235Z,98.94
2023-01-23T10:20:52.561Z,98.86
2023-01-23T10:23:33.578Z,98.85
2023-01-23T10:26:04.498Z,98.83
2023-01-23T10:28:34.923Z,98.69
2023-01-23T10:31:04.943Z,98.47
2023-01-23T10:33:40.487Z,97.86
2023-01-23T10:36:23.633Z,97.82
2023-01-23T10:38:59.076Z,98.60
2023-01-23T10:41:26.511Z,97.67
2023-01-23T10:43:56.900Z,97.96
2023-01-23T10:46:30.295Z,98.24
2023-01-23T10:48:58.108Z,98.06
2023-01-23T10:51:47.990Z,98.54
2023-01-23T10:54:31.199Z,98.28
2023-01-23T10:57:01.335Z,98.23
2023-01-23T10:59:32.602Z,98.16
2023-01-23T11:02:17.580Z,98.71
2023-01-23T11:04:46.575Z,98.63
2023-01-23T11:07:17.990Z,98.71
2023-01-23T11:09:48.325Z,98.84
2023-01-23T11:12:18.746Z,98.55
2023-01-23T11:14:46.750Z,99.17
2023-01-23T11:17:20.718Z,99.11
2023-01-23T11:19:49.791Z,98.95
2023-01-23T11:22:33.033Z,98.66
2023-01-23T11:25:00.862Z,98.64
2023-01-23T11:27:30.866Z,99.14
2023-01-23T11:30:28.457Z,99.08
2023-01-23T11:32:59.194Z,99.25
2023-01-23T11:35:46.330Z,99.18
2023-01-23T11:38:27.169Z,98.97
2023-01-23T11:40:57.648Z,99.04
2023-01-23T11:43:26.108Z,98.93
2023-01-23T11:46:06.451Z,98.39
2023-01-23T11:48:48.260Z,98.75
2023-01-23T11:51:21.329Z,98.60
2023-01-23T11:53:55.486Z,98.38
2023-01-23T11:56:41.265Z,98.75
2023-01-23T11:59:42.009Z,98.90
2023-01-23T12:02:47.792Z,98.96
2023-01-23T12:05:39.145Z,98.50
2023-01-23T12:08:18.364Z,99.44
2023-01-23T12:10:55.498Z,99.08
2023-01-23T12:13:36.558Z,98.31
2023-01-23T12:16:11.515Z,98.85
2023-01-23T12:18:47.338Z,98.89
2023-01-23T12:21:19.165Z,99.21
2023-01-23T12:24:01.364Z,99.95
2023-01-23T12:26:30.810Z,99.73
2023-01-23T12:29:28.082Z,99.98
2023-01-23T12:32:05.243Z,100.00
2023-01-23T12:34:46.787Z,99.79
2023-01-23T12:37:37.238Z,99.48
2023-01-23T12:40:13.209Z,99.07
2023-01-23T12:42:48.733Z,99.45
2023-01-23T12:45:22.773Z,99.08
2023-01-23T12:47:56.534Z,98.90
2023-01-23T12:50:36.175Z,99.03
2023-01-23T12:53:07.844Z,98.54
2023-01-23T12:55:38.284Z,98.73
2023-01-23T12:58:09.466Z,99.01
2023-01-23T13:00:45.798Z,98.49
2023-01-23T13:03:44.870Z,99.07
2023-01-23T13:06:30.155Z,100.00
2023-01-23T13:09:16.756Z,99.58
2023-01-23T13:11:51.462Z,99.30
2023-01-23T13:14:25.417Z,98.73
2023-01-23T13:16:55.545Z,99.05
2023-01-23T13:19:42.859Z,99.35
2023-01-23T13:22:26.990Z,99.06
2023-01-23T13:25:12.543Z,98.91
2023-01-23T13:27:46.110Z,98.68
2023-01-23T13:30:42.589Z,99.45
2023-01-23T13:34:03.689Z,99.22
2023-01-23T13:36:38.541Z,99.69
2023-01-23T13:39:21.869Z,99.02
2023-01-23T13:41:51.275Z,99.49
2023-01-23T13:44:27.128Z,99.01
2023-01-23T14:20:42.340Z,98.42
2023-01-23T14:23:18.906Z,98.74
2023-01-23T14:25:46.399Z,98.65
2023-01-23T14:28:18.049Z,98.59
2023-01-23T14:30:54.723Z,98.09
2023-01-23T14:33:22.181Z,98.60
2023-01-23T14:35:52.364Z,97.93
2023-01-23T14:38:25.415Z,97.48
2023-01-23T14:40:52.857Z,98.10
2023-01-23T14:43:22.451Z,96.88
2023-01-23T14:45:53.632Z,97.98
2023-01-23T14:48:22.134Z,97.80
2023-01-23T14:50:49.529Z,97.33
2023-01-23T14:53:18.212Z,97.74
2023-01-23T14:55:49.562Z,98.00
2023-01-23T14:58:21.960Z,97.85
2023-01-23T15:00:50.197Z,97.58
2023-01-23T15:03:35.889Z,97.47
2023-01-23T15:06:04.501Z,96.83
2023-01-23T15:08:34.517Z,97.29
2023-01-23T15:11:03.047Z,97.60
2023-01-23T15:13:36.059Z,97.38
2023-01-23T15:16:05.061Z,96.80
2023-01-23T15:18:34.492Z,96.84
2023-01-23T15:21:03.753Z,97.20
2023-01-23T15:23:34.912Z,96.86
2023-01-23T15:26:26.829Z,97.27
2023-01-23T15:28:55.329Z,96.75
2023-01-23T15:31:26.269Z,96.61
2023-01-23T15:33:54.057Z,96.54
2023-01-23T15:36:27.464Z,96.56
2023-01-23T15:38:58.165Z,96.43
2023-01-23T15:41:39.237Z,97.48
2023-01-23T15:44:13.219Z,96.95
2023-01-23T15:46:40.636Z,97.41
2023-01-23T15:49:16.435Z,96.74
2023-01-23T15:51:51.546Z,96.99
2023-01-23T15:54:26.209Z,96.66
2023-01-23T15:57:05.570Z,96.77
2023-01-23T15:59:35.110Z,96.30
2023-01-23T16:02:02.477Z,95.71
2023-01-23T16:04:29.827Z,95.79
2023-01-23T16:06:57.389Z,95.72
2023-01-23T16:09:30.520Z,95.79
2023-01-23T16:11:58.188Z,96.14
2023-01-23T16:14:25.718Z,95.60
2023-01-23T16:16:53.099Z,94.75
2023-01-23T16:19:20.526Z,95.13
2023-01-23T16:22:03.171Z,94.92
2023-01-23T16:24:36.010Z,94.82
2023-01-23T16:27:03.553Z,95.31
2023-01-23T16:29:32.519Z,95.83
2023-01-23T16:32:01.581Z,95.76
2023-01-23T16:34:29.288Z,95.88
2023-01-23T16:36:59.080Z,96.28
2023-01-23T16:39:27.925Z,96.38
2023-01-23T16:41:56.642Z,95.83
2023-01-23T16:44:24.804Z,95.46
2023-01-23T16:46:53.286Z,95.68
2023-01-23T16:49:21.159Z,95.74
2023-01-23T16:51:52.870Z,95.57
2023-01-23T16:54:21.289Z,95.94
2023-01-23T16:56:50.830Z,95.52
2023-01-23T16:59:21.401Z,95.90
2023-01-23T17:01:51.544Z,95.06
2023-01-23T17:04:21.378Z,95.64
2023-01-23T17:06:49.290Z,95.35
2023-01-23T17:09:17.471Z,95.76
2023-01-23T17:11:47.474Z,95.82
2023-01-23T17:14:17.035Z,96.03
2023-01-23T17:16:46.293Z,95.89
2023-01-23T17:19:19.847Z,96.35
2023-01-23T17:21:47.560Z,96.90
2023-01-23T17:24:16.182Z,96.82
2023-01-23T17:26:43.886Z,95.96
2023-01-23T17:29:12.085Z,95.55
2023-01-23T17:31:40.156Z,95.96
2023-01-23T17:34:15.535Z,95.20
2023-01-23T17:36:43.050Z,95.10
2023-01-23T17:39:10.611Z,95.68
2023-01-23T17:41:38.084Z,95.60
2023-01-23T17:44:06.138Z,95.58
2023-01-23T17:46:36.758Z,95.58
2023-01-23T17:49:05.181Z,95.79
2023-01-23T17:51:34.263Z,95.52
2023-01-23T17:54:01.637Z,95.54
2023-01-23T17:56:29.069Z,95.45
2023-01-23T17:58:56.551Z,95.13
2023-01-23T18:01:25.605Z,95.06
2023-01-23T18:03:53.652Z,94.64
2023-01-23T18:06:21.376Z,94.39
2023-01-23T18:08:50.271Z,95.01
2023-01-23T18:11:19.965Z,94.46
2023-01-23T18:13:54.695Z,94.61
2023-01-23T18:16:25.585Z,94.61
2023-01-23T18:18:57.951Z,95.02
2023-01-23T18:21:25.750Z,94.77
2023-01-23T18:23:55.302Z,94.68
2023-01-23T18:26:33.078Z,95.22
2023-01-23T18:29:06.671Z,94.92
2023-01-23T18:31:39.457Z,94.77
2023-01-23T18:34:15.707Z,94.32
2023-01-23T18:36:51.394Z,94.71
2023-01-23T18:39:34.857Z,95.96
2023-01-23T18:42:14.387Z,95.63
2023-01-23T18:44:43.491Z,95.40
2023-01-23T18:47:12.633Z,95.01
2023-01-23T18:49:41.014Z,95.89
2023-01-23T18:52:10.847Z,96.07
2023-01-23T18:54:43.729Z,96.49
2023-01-23T18:57:19.386Z,96.19
2023-01-23T18:59:49.758Z,96.14
2023-01-23T19:02:26.051Z,95.63
2023-01-23T19:04:58.635Z,95.80
2023-01-23T19:07:26.449Z,95.58
2023-01-23T19:09:56.017Z,95.12
2023-01-23T19:12:28.673Z,95.12
2023-01-23T19:15:16.198Z,94.61
2023-01-23T19:17:46.015Z,95.08
2023-01-23T19:20:27.365Z,95.22
2023-01-23T19:23:02.064Z,94.64
2023-01-23T19:25:31.337Z,94.34
2023-01-23T19:28:00.898Z,94.92
2023-01-23T19:30:28.964Z,95.02
2023-01-23T19:32:56.349Z,95.40
2023-01-23T19:35:23.826Z,95.20
2023-01-23T19:37:51.377Z,94.97
2023-01-23T19:40:19.322Z,94.96
2023-01-23T19:42:56.334Z,94.64
2023-01-23T19:45:29.083Z,94.46
2023-01-23T19:47:56.518Z,94.86
2023-01-23T19:50:24.036Z,93.86
2023-01-23T19:52:52.430Z,94.52
2023-01-23T19:55:25.471Z,94.53
2023-01-23T19:57:56.142Z,94.03
2023-01-23T20:00:24.059Z,94.69
2023-01-23T20:02:51.529Z,94.18
2023-01-23T20:05:19.374Z,94.07
2023-01-23T20:07:46.903Z,94.12
2023-01-23T20:10:14.412Z,94.53
2023-01-23T20:12:43.005Z,94.32
2023-01-23T20:15:13.212Z,94.56
2023-01-23T20:17:41.330Z,94.00
2023-01-23T20:20:22.844Z,94.16
2023-01-23T20:22:59.470Z,94.27
2023-01-23T20:25:36.895Z,93.92
2023-01-23T20:28:04.777Z,94.02
2023-01-23T20:30:33.706Z,93.61
2023-01-23T20:33:01.244Z,93.73
2023-01-23T20:35:29.675Z,94.26
2023-01-23T20:37:57.216Z,94.00
2023-01-23T20:40:24.727Z,94.31
2023-01-23T20:42:52.143Z,94.13
2023-01-23T20:45:19.668Z,93.60
2023-01-23T20:47:49.163Z,93.73
2023-01-23T20:50:17.246Z,93.71
2023-01-23T20:53:02.483Z,93.60
2023-01-23T20:55:30.029Z,93.56
2023-01-23T20:58:15.392Z,94.13
2023-01-23T21:00:44.663Z,93.84
2023-01-23T21:03:13.853Z,93.91
2023-01-23T21:05:42.833Z,94.24
2023-01-23T21:11:34.816Z,93.99
2023-01-23T21:14:25.626Z,94.20
2023-01-23T21:17:22.093Z,93.95
2023-01-23T21:19:50.910Z,94.10
2023-01-23T21:22:28.058Z,94.01
2023-01-23T21:24:55.715Z,94.01
2023-01-23T21:27:25.165Z,94.38
2023-01-23T21:29:53.422Z,93.67
2023-01-23T21:32:23.499Z,93.52
2023-01-23T21:34:52.457Z,93.53
2023-01-23T21:37:20.178Z,93.64
2023-01-23T21:39:47.779Z,93.48
2023-01-23T21:42:15.394Z,93.93
2023-01-23T21:44:42.849Z,94.12
2023-01-23T21:47:10.286Z,94.38
2023-01-23T21:49:37.834Z,93.94
2023-01-23T21:52:06.580Z,93.89
2023-01-23T21:54:33.963Z,94.12
2023-01-23T21:57:03.112Z,94.23
2023-01-23T21:59:30.479Z,93.95
2023-01-23T22:01:56.992Z,94.23
2023-01-23T22:04:24.523Z,94.29
2023-01-23T22:06:54.221Z,93.92
2023-01-23T22:09:25.786Z,93.83
2023-01-23T22:11:53.590Z,93.58
2023-01-23T22:14:21.220Z,93.86
2023-01-23T22:16:50.250Z,93.65
2023-01-23T22:19:20.990Z,93.70
2023-01-23T22:21:49.611Z,93.62
2023-01-23T22:24:17.135Z,93.52
2023-01-23T22:26:45.952Z,93.95
2023-01-23T22:29:14.834Z,93.58
2023-01-23T22:31:42.507Z,94.07
2023-01-23T22:34:10.679Z,94.18
2023-01-23T22:36:38.430Z,94.18
2023-01-23T22:39:05.936Z,94.24
2023-01-23T22:41:33.604Z,94.04
2023-01-23T22:44:02.360Z,93.86
2023-01-23T22:46:32.036Z,94.00
2023-01-23T22:48:59.587Z,94.04
2023-01-23T22:51:28.403Z,93.78
2023-01-23T22:53:57.034Z,93.64
2023-01-23T22:56:25.543Z,94.04
2023-01-23T22:58:54.407Z,93.97
2023-01-23T23:01:23.918Z,94.75
2023-01-23T23:03:51.407Z,94.46
2023-01-23T23:06:19.260Z,93.97
2023-01-23T23:08:48.137Z,94.97
2023-01-23T23:11:17.598Z,94.84
2023-01-23T23:13:45.788Z,94.92
2023-01-23T23:16:15.612Z,94.24
2023-01-23T23:18:44.988Z,94.51
2023-01-23T23:21:14.835Z,93.57
2023-01-23T23:23:42.353Z,94.32
2023-01-23T23:26:10.857Z,93.70
2023-01-23T23:28:39.633Z,94.08
2023-01-23T23:31:08.197Z,93.61
2023-01-23T23:33:35.780Z,94.04
2023-01-23T23:36:04.665Z,93.90
2023-01-23T23:38:32.144Z,93.82
2023-01-23T23:41:00.919Z,94.14
2023-01-23T23:43:29.207Z,93.60
2023-01-23T23:45:58.003Z,93.55
2023-01-23T23:48:26.461Z,93.67
2023-01-23T23:50:54.544Z,93.61
2023-01-23T23:53:23.818Z,93.60
2023-01-23T23:55:51.391Z,94.46
2023-01-23T23:58:18.988Z,94.32
